Atlantis — PCDT — position and weather

sailwx.info

Track history (hours):
 
Tides and Currents Weather Stations Pressure Air Temp Water Temp Dewpoint Dewpoint Depression Visibility Wind Speed Wind Dir Waves Ship Positions

Atlantis (Netherlands)

Ship's website: http://www.tallship-company.com/artemis/gb_atlantis.htm

Last reported at 2016-Jul-01 14:32 UTC. Time now 2016-Jul-01 15:27 UTC.
Position N 54°22' E 010°09'.

Length 40 m; draft 4.5 m.

Type: Sailing vessel. MMSI: 246253000.

Date/timePositionNaut miles runAvg speedWind from/ knotsBaromVisibWave heightAir tempDewpointWater temp
2016-Jul-01 14:32N 54°22' E 010°09'0 0.0
2016-Jul-01 13:32N 54°22' E 010°09'0 0.0
2016-Jul-01 12:29N 54°22' E 010°09'0 0.0
2016-Jul-01 11:32N 54°22' E 010°09'0 0.0
2016-Jul-01 10:32N 54°22' E 010°09'0 0.0
2016-Jul-01 09:32N 54°22' E 010°09'0 0.0
2016-Jul-01 08:32N 54°22' E 010°09'0 0.0
2016-Jul-01 07:32N 54°22' E 010°09'0 0.0
2016-Jul-01 06:32N 54°22' E 010°09'0 0.0
2016-Jul-01 05:32N 54°22' E 010°09'0 0.0
2016-Jul-01 04:32N 54°22' E 010°09'0 0.0
2016-Jul-01 03:32N 54°22' E 010°09'0 0.0
2016-Jul-01 02:32N 54°22' E 010°09'0 0.0
2016-Jul-01 01:32N 54°22' E 010°09'0 0.0
2016-Jul-01 00:32N 54°22' E 010°09'0 0.0
2016-Jun-30 23:32N 54°22' E 010°09'0 0.0
2016-Jun-30 22:32N 54°22' E 010°09'0 0.0
2016-Jun-30 21:32N 54°22' E 010°09'5 4.7
2016-Jun-30 20:32N 54°26' E 010°13'8 7.0
2016-Jun-30 19:26N 54°34' E 010°14'23 1.8
2016-Jun-30 06:21N 54°57' E 010°15'11 4.0
2016-Jun-30 03:32N 55°02' E 010°33'3 0.3
2016-Jun-29 18:32N 55°04' E 010°37'0 0.0
2016-Jun-29 15:32N 55°04' E 010°37'0 0.0
2016-Jun-29 11:08N 55°04' E 010°37'0 0.1
2016-Jun-29 10:32N 55°03' E 010°37'5 5.3
2016-Jun-29 09:31N 55°01' E 010°28'34 0.7
2016-Jun-27 08:33N 54°29' E 010°14'7 6.7
2016-Jun-27 07:33N 54°23' E 010°11'1 1.0
2016-Jun-27 06:33N 54°22' E 010°09'0 0.0
2016-Jun-27 05:30N 54°22' E 010°09'0 0.0
2016-Jun-27 04:33N 54°22' E 010°09'0 0.0
2016-Jun-27 03:33N 54°22' E 010°09'0 0.0
2016-Jun-27 02:33N 54°22' E 010°09'0 0.0
2016-Jun-27 01:33N 54°22' E 010°09'0 0.0
2016-Jun-27 00:33N 54°22' E 010°09'0 0.0
2016-Jun-26 23:33N 54°22' E 010°09'0 0.0
2016-Jun-26 22:33N 54°22' E 010°09'0 0.0
2016-Jun-26 21:33N 54°22' E 010°09'0 0.0
2016-Jun-26 20:33N 54°22' E 010°09'0 0.0
2016-Jun-26 19:33N 54°22' E 010°09'0 0.0
2016-Jun-26 18:33N 54°22' E 010°09'0 0.0
2016-Jun-26 17:33N 54°22' E 010°09'0 0.0
2016-Jun-26 16:30N 54°22' E 010°09'0 0.0
2016-Jun-26 15:33N 54°22' E 010°09'0 0.0
2016-Jun-26 14:33N 54°22' E 010°09'0 0.0
2016-Jun-26 13:33N 54°22' E 010°09'0 0.0
2016-Jun-26 12:33N 54°22' E 010°09'0 0.0
2016-Jun-26 11:33N 54°22' E 010°09'0 0.0
2016-Jun-26 10:31N 54°22' E 010°09'0 0.0
2016-Jun-26 09:33N 54°22' E 010°09'3 3.3
2016-Jun-26 08:33N 54°19' E 010°08'0 0.0
2016-Jun-26 07:33N 54°19' E 010°08'0 0.0
2016-Jun-26 06:33N 54°19' E 010°08'0 0.0
2016-Jun-26 05:33N 54°19' E 010°08'0 0.0
2016-Jun-26 04:33N 54°19' E 010°08'0 0.0
2016-Jun-26 03:33N 54°19' E 010°08'0 0.0
2016-Jun-26 02:33N 54°19' E 010°08'0 0.0
2016-Jun-26 01:33N 54°19' E 010°08'0 0.0
2016-Jun-26 00:33N 54°19' E 010°08'0 0.0
2016-Jun-25 23:33N 54°19' E 010°08'0 0.0
2016-Jun-25 22:33N 54°19' E 010°08'0 0.0
2016-Jun-25 21:32N 54°19' E 010°08'0 0.0
2016-Jun-25 20:32N 54°19' E 010°08'0 0.0
2016-Jun-25 19:32N 54°19' E 010°08'0 0.0
2016-Jun-25 18:32N 54°19' E 010°08'0 0.0
2016-Jun-25 17:31N 54°19' E 010°08'0 0.0
2016-Jun-25 16:31N 54°19' E 010°08'0 0.0
2016-Jun-25 15:31N 54°19' E 010°08'1 0.9
2016-Jun-25 14:33N 54°20' E 010°09'4 3.5
2016-Jun-25 13:23N 54°23' E 010°12'3 4.2
2016-Jun-25 12:33N 54°27' E 010°14'1 0.7
2016-Jun-25 11:22N 54°27' E 010°15'3 3.7
2016-Jun-25 10:30N 54°24' E 010°12'3 3.0
2016-Jun-25 09:34N 54°21' E 010°10'2 2.2
2016-Jun-25 08:34N 54°19' E 010°09'1 0.6
2016-Jun-25 07:32N 54°19' E 010°08'0 0.0
2016-Jun-25 06:32N 54°19' E 010°08'0 0.0
2016-Jun-25 05:32N 54°19' E 010°08'0 0.0
2016-Jun-25 04:32N 54°19' E 010°08'0 0.0
2016-Jun-25 03:32N 54°19' E 010°08'0 0.0
2016-Jun-25 02:32N 54°19' E 010°08'0 0.0
2016-Jun-25 01:32N 54°19' E 010°08'0 0.0
2016-Jun-25 00:32N 54°19' E 010°08'0 0.0
2016-Jun-24 23:32N 54°19' E 010°08'0 0.0
2016-Jun-24 22:32N 54°19' E 010°08'0 0.0
2016-Jun-24 21:32N 54°19' E 010°08'0 0.0
2016-Jun-24 20:32N 54°19' E 010°08'0 0.0
2016-Jun-24 19:32N 54°19' E 010°08'0 0.0
2016-Jun-24 18:32N 54°19' E 010°08'0 0.0
2016-Jun-24 17:32N 54°19' E 010°08'0 0.0
2016-Jun-24 16:32N 54°19' E 010°08'0 0.0
2016-Jun-24 15:32N 54°19' E 010°08'0 0.4
2016-Jun-24 14:33N 54°19' E 010°08'4 4.3
2016-Jun-24 13:33N 54°23' E 010°11'4 3.8
2016-Jun-24 12:32N 54°27' E 010°14'1 1.0
2016-Jun-24 11:09N 54°26' E 010°13'2 2.5
2016-Jun-24 10:33N 54°24' E 010°12'3 3.0
2016-Jun-24 09:33N 54°21' E 010°10'3 2.8
2016-Jun-24 08:33N 54°19' E 010°08'0 0.0
2016-Jun-24 07:33N 54°19' E 010°08'0 0.0
2016-Jun-24 06:30N 54°19' E 010°08'0 0.0
2016-Jun-24 04:33N 54°19' E 010°08'0 0.0
2016-Jun-24 03:33N 54°19' E 010°08'0 0.0
2016-Jun-24 02:24N 54°19' E 010°08'0 0.0
2016-Jun-24 01:33N 54°19' E 010°08'0 0.0
2016-Jun-24 00:33N 54°19' E 010°08'0 0.0
2016-Jun-23 23:33N 54°19' E 010°08'0 0.0
2016-Jun-23 22:33N 54°19' E 010°08'0 0.0
2016-Jun-23 21:33N 54°19' E 010°08'0 0.0
2016-Jun-23 20:27N 54°19' E 010°08'0 0.0
2016-Jun-23 19:33N 54°19' E 010°08'0 0.0
2016-Jun-23 18:33N 54°19' E 010°08'0 0.0
2016-Jun-23 17:33N 54°19' E 010°08'0 0.0
2016-Jun-23 16:33N 54°19' E 010°08'0 0.0
2016-Jun-23 15:33N 54°19' E 010°08'0 0.0
2016-Jun-23 12:33N 54°19' E 010°08'0 0.0
2016-Jun-23 11:33N 54°19' E 010°08'0 0.0
2016-Jun-23 10:33N 54°19' E 010°08'0 0.0
2016-Jun-23 09:33N 54°19' E 010°08'0 0.0
2016-Jun-23 08:33N 54°19' E 010°08'0 0.0
2016-Jun-23 07:33N 54°19' E 010°08'0 0.0
2016-Jun-23 05:33N 54°19' E 010°08'0 0.0
2016-Jun-23 04:33N 54°19' E 010°08'0 0.0
2016-Jun-23 03:33N 54°19' E 010°08'0 0.0
2016-Jun-23 02:33N 54°19' E 010°08'0 0.0
2016-Jun-23 01:33N 54°19' E 010°08'0 0.0
2016-Jun-23 00:33N 54°19' E 010°08'0 0.0
2016-Jun-22 23:33N 54°19' E 010°08'0 0.0
2016-Jun-22 22:33N 54°19' E 010°08'0 0.0
2016-Jun-22 21:33N 54°19' E 010°08'0 0.0
2016-Jun-22 20:33N 54°19' E 010°08'0 0.0
2016-Jun-22 19:33N 54°19' E 010°08'0 0.0
2016-Jun-22 18:33N 54°19' E 010°08'0 0.0
2016-Jun-22 17:33N 54°19' E 010°08'0 0.0
2016-Jun-22 16:33N 54°19' E 010°08'0 0.0
2016-Jun-22 15:33N 54°19' E 010°08'0 0.4
2016-Jun-22 14:34N 54°19' E 010°09'4 3.5
2016-Jun-22 13:34N 54°22' E 010°11'4 3.6
2016-Jun-22 12:33N 54°26' E 010°13'2 1.9
2016-Jun-22 11:34N 54°28' E 010°14'2 2.1
2016-Jun-22 10:34N 54°26' E 010°13'4 3.6
2016-Jun-22 09:34N 54°22' E 010°11'3 3.0
2016-Jun-22 08:34N 54°19' E 010°09'1 0.8
2016-Jun-22 07:31N 54°19' E 010°08'0 0.0
2016-Jun-22 06:31N 54°19' E 010°08'0 0.0
2016-Jun-22 05:31N 54°19' E 010°08'0 0.0
2016-Jun-22 04:31N 54°19' E 010°08'0 0.0
2016-Jun-22 03:31N 54°19' E 010°08'0 0.0
2016-Jun-22 02:31N 54°19' E 010°08'0 0.0
2016-Jun-22 01:31N 54°19' E 010°08'0 0.0
2016-Jun-22 00:31N 54°19' E 010°08'0 0.0
2016-Jun-21 23:31N 54°19' E 010°08'0 0.0
2016-Jun-21 22:31N 54°19' E 010°08'0 0.0
2016-Jun-21 21:31N 54°19' E 010°08'0 0.0
2016-Jun-21 20:31N 54°19' E 010°08'0 0.0
2016-Jun-21 19:31N 54°19' E 010°08'0 0.0
2016-Jun-21 18:31N 54°19' E 010°08'0 0.0
2016-Jun-21 17:31N 54°19' E 010°08'0 0.0
2016-Jun-21 16:31N 54°19' E 010°08'0 0.0
2016-Jun-21 15:31N 54°19' E 010°08'0 0.1
2016-Jun-21 14:33N 54°19' E 010°08'  
Track history (hours):
 
Tides and Currents Weather Stations Pressure Air Temp Water Temp Dewpoint Dewpoint Depression Visibility Wind Speed Wind Dir Waves Ship Positions

Atlantis (Netherlands)

Ship's website: http://www.tallship-company.com/artemis/gb_atlantis.htm

Last reported at 2016-Jul-01 14:32 UTC. Time now 2016-Jul-01 15:27 UTC.
Position N 54°22' E 010°09'.

Length 40 m; draft 4.5 m.

Type: Sailing vessel. MMSI: 246253000.

Date/timePositionNaut miles runAvg speedWind from/ knotsBaromVisibWave heightAir tempDewpointWater temp
2016-Jul-01 14:32N 54°22' E 010°09'0 0.0
2016-Jul-01 13:32N 54°22' E 010°09'0 0.0
2016-Jul-01 12:29N 54°22' E 010°09'0 0.0
2016-Jul-01 11:32N 54°22' E 010°09'0 0.0
2016-Jul-01 10:32N 54°22' E 010°09'0 0.0
2016-Jul-01 09:32N 54°22' E 010°09'0 0.0
2016-Jul-01 08:32N 54°22' E 010°09'0 0.0
2016-Jul-01 07:32N 54°22' E 010°09'0 0.0
2016-Jul-01 06:32N 54°22' E 010°09'0 0.0
2016-Jul-01 05:32N 54°22' E 010°09'0 0.0
2016-Jul-01 04:32N 54°22' E 010°09'0 0.0
2016-Jul-01 03:32N 54°22' E 010°09'0 0.0
2016-Jul-01 02:32N 54°22' E 010°09'0 0.0
2016-Jul-01 01:32N 54°22' E 010°09'0 0.0
2016-Jul-01 00:32N 54°22' E 010°09'0 0.0
2016-Jun-30 23:32N 54°22' E 010°09'0 0.0
2016-Jun-30 22:32N 54°22' E 010°09'0 0.0
2016-Jun-30 21:32N 54°22' E 010°09'5 4.7
2016-Jun-30 20:32N 54°26' E 010°13'8 7.0
2016-Jun-30 19:26N 54°34' E 010°14'23 1.8
2016-Jun-30 06:21N 54°57' E 010°15'11 4.0
2016-Jun-30 03:32N 55°02' E 010°33'3 0.3
2016-Jun-29 18:32N 55°04' E 010°37'0 0.0
2016-Jun-29 15:32N 55°04' E 010°37'0 0.0
2016-Jun-29 11:08N 55°04' E 010°37'0 0.1
2016-Jun-29 10:32N 55°03' E 010°37'5 5.3
2016-Jun-29 09:31N 55°01' E 010°28'34 0.7
2016-Jun-27 08:33N 54°29' E 010°14'7 6.7
2016-Jun-27 07:33N 54°23' E 010°11'1 1.0
2016-Jun-27 06:33N 54°22' E 010°09'0 0.0
2016-Jun-27 05:30N 54°22' E 010°09'0 0.0
2016-Jun-27 04:33N 54°22' E 010°09'0 0.0
2016-Jun-27 03:33N 54°22' E 010°09'0 0.0
2016-Jun-27 02:33N 54°22' E 010°09'0 0.0
2016-Jun-27 01:33N 54°22' E 010°09'0 0.0
2016-Jun-27 00:33N 54°22' E 010°09'0 0.0
2016-Jun-26 23:33N 54°22' E 010°09'0 0.0
2016-Jun-26 22:33N 54°22' E 010°09'0 0.0
2016-Jun-26 21:33N 54°22' E 010°09'0 0.0
2016-Jun-26 20:33N 54°22' E 010°09'0 0.0
2016-Jun-26 19:33N 54°22' E 010°09'0 0.0
2016-Jun-26 18:33N 54°22' E 010°09'0 0.0
2016-Jun-26 17:33N 54°22' E 010°09'0 0.0
2016-Jun-26 16:30N 54°22' E 010°09'0 0.0
2016-Jun-26 15:33N 54°22' E 010°09'0 0.0
2016-Jun-26 14:33N 54°22' E 010°09'0 0.0
2016-Jun-26 13:33N 54°22' E 010°09'0 0.0
2016-Jun-26 12:33N 54°22' E 010°09'0 0.0
2016-Jun-26 11:33N 54°22' E 010°09'0 0.0
2016-Jun-26 10:31N 54°22' E 010°09'0 0.0
2016-Jun-26 09:33N 54°22' E 010°09'3 3.3
2016-Jun-26 08:33N 54°19' E 010°08'0 0.0
2016-Jun-26 07:33N 54°19' E 010°08'0 0.0
2016-Jun-26 06:33N 54°19' E 010°08'0 0.0
2016-Jun-26 05:33N 54°19' E 010°08'0 0.0
2016-Jun-26 04:33N 54°19' E 010°08'0 0.0
2016-Jun-26 03:33N 54°19' E 010°08'0 0.0
2016-Jun-26 02:33N 54°19' E 010°08'0 0.0
2016-Jun-26 01:33N 54°19' E 010°08'0 0.0
2016-Jun-26 00:33N 54°19' E 010°08'0 0.0
2016-Jun-25 23:33N 54°19' E 010°08'0 0.0
2016-Jun-25 22:33N 54°19' E 010°08'0 0.0
2016-Jun-25 21:32N 54°19' E 010°08'0 0.0
2016-Jun-25 20:32N 54°19' E 010°08'0 0.0
2016-Jun-25 19:32N 54°19' E 010°08'0 0.0
2016-Jun-25 18:32N 54°19' E 010°08'0 0.0
2016-Jun-25 17:31N 54°19' E 010°08'0 0.0
2016-Jun-25 16:31N 54°19' E 010°08'0 0.0
2016-Jun-25 15:31N 54°19' E 010°08'1 0.9
2016-Jun-25 14:33N 54°20' E 010°09'4 3.5
2016-Jun-25 13:23N 54°23' E 010°12'3 4.2
2016-Jun-25 12:33N 54°27' E 010°14'1 0.7
2016-Jun-25 11:22N 54°27' E 010°15'3 3.7
2016-Jun-25 10:30N 54°24' E 010°12'3 3.0
2016-Jun-25 09:34N 54°21' E 010°10'2 2.2
2016-Jun-25 08:34N 54°19' E 010°09'1 0.6
2016-Jun-25 07:32N 54°19' E 010°08'0 0.0
2016-Jun-25 06:32N 54°19' E 010°08'0 0.0
2016-Jun-25 05:32N 54°19' E 010°08'0 0.0
2016-Jun-25 04:32N 54°19' E 010°08'0 0.0
2016-Jun-25 03:32N 54°19' E 010°08'0 0.0
2016-Jun-25 02:32N 54°19' E 010°08'0 0.0
2016-Jun-25 01:32N 54°19' E 010°08'0 0.0
2016-Jun-25 00:32N 54°19' E 010°08'0 0.0
2016-Jun-24 23:32N 54°19' E 010°08'0 0.0
2016-Jun-24 22:32N 54°19' E 010°08'0 0.0
2016-Jun-24 21:32N 54°19' E 010°08'0 0.0
2016-Jun-24 20:32N 54°19' E 010°08'0 0.0
2016-Jun-24 19:32N 54°19' E 010°08'0 0.0
2016-Jun-24 18:32N 54°19' E 010°08'0 0.0
2016-Jun-24 17:32N 54°19' E 010°08'0 0.0
2016-Jun-24 16:32N 54°19' E 010°08'0 0.0
2016-Jun-24 15:32N 54°19' E 010°08'0 0.4
2016-Jun-24 14:33N 54°19' E 010°08'4 4.3
2016-Jun-24 13:33N 54°23' E 010°11'4 3.8
2016-Jun-24 12:32N 54°27' E 010°14'1 1.0
2016-Jun-24 11:09N 54°26' E 010°13'2 2.5
2016-Jun-24 10:33N 54°24' E 010°12'3 3.0
2016-Jun-24 09:33N 54°21' E 010°10'3 2.8
2016-Jun-24 08:33N 54°19' E 010°08'0 0.0
2016-Jun-24 07:33N 54°19' E 010°08'0 0.0
2016-Jun-24 06:30N 54°19' E 010°08'0 0.0
2016-Jun-24 04:33N 54°19' E 010°08'0 0.0
2016-Jun-24 03:33N 54°19' E 010°08'0 0.0
2016-Jun-24 02:24N 54°19' E 010°08'0 0.0
2016-Jun-24 01:33N 54°19' E 010°08'0 0.0
2016-Jun-24 00:33N 54°19' E 010°08'0 0.0
2016-Jun-23 23:33N 54°19' E 010°08'0 0.0
2016-Jun-23 22:33N 54°19' E 010°08'0 0.0
2016-Jun-23 21:33N 54°19' E 010°08'0 0.0
2016-Jun-23 20:27N 54°19' E 010°08'0 0.0
2016-Jun-23 19:33N 54°19' E 010°08'0 0.0
2016-Jun-23 18:33N 54°19' E 010°08'0 0.0
2016-Jun-23 17:33N 54°19' E 010°08'0 0.0
2016-Jun-23 16:33N 54°19' E 010°08'0 0.0
2016-Jun-23 15:33N 54°19' E 010°08'0 0.0
2016-Jun-23 12:33N 54°19' E 010°08'0 0.0
2016-Jun-23 11:33N 54°19' E 010°08'0 0.0
2016-Jun-23 10:33N 54°19' E 010°08'0 0.0
2016-Jun-23 09:33N 54°19' E 010°08'0 0.0
2016-Jun-23 08:33N 54°19' E 010°08'0 0.0
2016-Jun-23 07:33N 54°19' E 010°08'0 0.0
2016-Jun-23 05:33N 54°19' E 010°08'0 0.0
2016-Jun-23 04:33N 54°19' E 010°08'0 0.0
2016-Jun-23 03:33N 54°19' E 010°08'0 0.0
2016-Jun-23 02:33N 54°19' E 010°08'0 0.0
2016-Jun-23 01:33N 54°19' E 010°08'0 0.0
2016-Jun-23 00:33N 54°19' E 010°08'0 0.0
2016-Jun-22 23:33N 54°19' E 010°08'0 0.0
2016-Jun-22 22:33N 54°19' E 010°08'0 0.0
2016-Jun-22 21:33N 54°19' E 010°08'0 0.0
2016-Jun-22 20:33N 54°19' E 010°08'0 0.0
2016-Jun-22 19:33N 54°19' E 010°08'0 0.0
2016-Jun-22 18:33N 54°19' E 010°08'0 0.0
2016-Jun-22 17:33N 54°19' E 010°08'0 0.0
2016-Jun-22 16:33N 54°19' E 010°08'0 0.0
2016-Jun-22 15:33N 54°19' E 010°08'0 0.4
2016-Jun-22 14:34N 54°19' E 010°09'4 3.5
2016-Jun-22 13:34N 54°22' E 010°11'4 3.6
2016-Jun-22 12:33N 54°26' E 010°13'2 1.9
2016-Jun-22 11:34N 54°28' E 010°14'2 2.1
2016-Jun-22 10:34N 54°26' E 010°13'4 3.6
2016-Jun-22 09:34N 54°22' E 010°11'3 3.0
2016-Jun-22 08:34N 54°19' E 010°09'1 0.8
2016-Jun-22 07:31N 54°19' E 010°08'0 0.0
2016-Jun-22 06:31N 54°19' E 010°08'0 0.0
2016-Jun-22 05:31N 54°19' E 010°08'0 0.0
2016-Jun-22 04:31N 54°19' E 010°08'0 0.0
2016-Jun-22 03:31N 54°19' E 010°08'0 0.0
2016-Jun-22 02:31N 54°19' E 010°08'0 0.0
2016-Jun-22 01:31N 54°19' E 010°08'0 0.0
2016-Jun-22 00:31N 54°19' E 010°08'0 0.0
2016-Jun-21 23:31N 54°19' E 010°08'0 0.0
2016-Jun-21 22:31N 54°19' E 010°08'0 0.0
2016-Jun-21 21:31N 54°19' E 010°08'0 0.0
2016-Jun-21 20:31N 54°19' E 010°08'0 0.0
2016-Jun-21 19:31N 54°19' E 010°08'0 0.0
2016-Jun-21 18:31N 54°19' E 010°08'0 0.0
2016-Jun-21 17:31N 54°19' E 010°08'0 0.0
2016-Jun-21 16:31N 54°19' E 010°08'0 0.0
2016-Jun-21 15:31N 54°19' E 010°08'0 0.1
2016-Jun-21 14:33N 54°19' E 010°08'  

Dump ship's entire track history